Harrisville, MI (48740)

3:11 AM EDT on September 05, 2015 (GMT -0400)
Oscoda-Wurtsmith | | Change Station
CLOSE
Current Station
Airport
Location: Oscoda,
Elevation: 633 ft
Nearby Weather Stations

Elev 633 ft 44.45 °N, 83.39 °W | Updated 18 minutes ago

Mostly Cloudy
Mostly Cloudy
70 °F
Feels Like 70 °F
N
4
Wind Variable Wind from South

Today
High -- | Low -- °F
--% Chance of Precip.
Yesterday
High -- | Low -- °F
Precip. -- in
7:00 AM 8:03 PM
Waning Gibbous, 51% visible
Pressure 30.07 in
Visibility 7.0 miles
Clouds Clear
Dew Point 68 °F
Humidity 95%
Rainfall 0.00 in
Snow Depth Not available.
UV 0 out of 12
Pollen 10.10 out of 12
Air Quality Not available.
Flu Activity Not available.
METAR KOSC 050653Z AUTO 17003KT 7SM CLR 21/20 A3007 RMK AO2 T02100202
Pressure 30.07 in
Visibility 7.0 miles
Clouds Clear
Dew Point 68 °F
Humidity 95%
Rainfall 0.00 in
Snow Depth Not available.
UV 0 out of 12
Pollen 10.10 out of 12
Air Quality Not available.
Flu Activity Not available.
METAR KOSC 050653Z AUTO 17003KT 7SM CLR 21/20 A3007 RMK AO2 T02100202
Nowcast | as of 3:00 am EDT on September 5, 2015

At 4 am...partly cloudy. Areas of fog. Temperature 68. South winds 6 mph. Areas of fog. At 8 am...partly cloudy. Slight chance of showers and isolated thunderstorms. Temperature 68. Southeast winds 5 mph. Slight chance of showers and isolated thunderstorms.

×

10-Day Weather Forecast

×

Almanac

Astronomy

Sep. 05, 2015 Rise Set
Actual Time
Civil Twilight
Nautical Twilight
Astronomical Twilight
Moon
Length of Visible Light
Length of Day
Tomorrow will be .
, % of the Moon is Illuminated

Today's Extremes

State Highs State Lows

Community

WunderPhotos

Upload Photos

1,852,430 photos uploaded!

WunderBlogs® & News

Nearby

Air Quality

  Air Quality AQ Index Pollutant
Not available.

Snow Depth

Station Depth Elevation

Earthquake Activity

City Distance Mag. Time & Date
Minimum magnitude displayed is 2.5.

Coastal Water Temperatures

Place Temperature

Stations

Nearby Weather Stations

Station Location Temp. Windchill Dew Point Humidity Wind Precip. Elev Updated Type